Accueil
METAR-TAF:

METAR-TAF

Aéroports :

Cervia, Italie

latitude: 44-13N, longitude: 012-18E, altitude: 6 m

Observation

Le bulletin a été fait il y a 36 minutes, à 22:55 UTC
Vent 3 kt de sud/sud-ouest
Température 1°C
Humidité 93%
Pression 1030 hPa
Visibilité 10 km ou plus
pas de nuages en-dessous de 1500 mètres et pas de cumulonimbus.

METAR: LIPC 222255Z 21003KT CAVOK 01/M00 Q1030 RMK SKC VIS MIN 9999 WIND THR11 /////KT WIND THR29 20002KT BLU

Heure: 00:31 (23:31 UTC)

Prévision

Le bulletin a été fait il y a 3 heures et 31 minutes, à 20:00 UTC
Prévision valable du 22 à 21 UTC au 23 à 06 UTC
Vent 4 kt de direction variable
Visibilité 10 km ou plus
pas de nuages en-dessous de 1500 mètres et pas de cumulonimbus.
Temporairement
du 22 à 21 UTC au 23 à 06 UTC
Visibilité: 3000 m
brume

TAF: LIPC 222000Z 2221/2306 VRB04KT CAVOK TEMPO 2221/2306 3000 BR NSC

Observations et prévisions météorologiques de plus de 4000 aéroports (messages METAR et TAF).

Les stations disponibles sont représentées par des disques jaunes et rouges sur la carte.

Passer la souris dessus pour voir le nom de la station.

Cliquer dessus pour voir les observations et prévisions météorologiques.

Pour changer de carte: cliquez sur les boutons verts avec une croix noire pour zoomer, sur le bouton vert avec un tiret pour effectuer un zoom arrière, ou sur les flèches vertes pour les cartes adjacentes.


METAR-TAF: